sensor_id;sensor_type;location;lat;lon;timestamp;pressure;altitude;pressure_sealevel;temperature;humidity
43503;BME280;29098;48.184;16.298;2023-01-28T00:01:26;99713.94;;;-0.87;100.00
43503;BME280;29098;48.184;16.298;2023-01-28T00:03:52;99725.50;;;-0.93;100.00
43503;BME280;29098;48.184;16.298;2023-01-28T00:06:17;99727.59;;;-0.85;100.00
43503;BME280;29098;48.184;16.298;2023-01-28T00:08:43;99734.38;;;-0.97;100.00
43503;BME280;29098;48.184;16.298;2023-01-28T00:11:10;99733.47;;;-0.96;100.00
43503;BME280;29098;48.184;16.298;2023-01-28T00:13:36;99730.19;;;-1.13;100.00
43503;BME280;29098;48.184;16.298;2023-01-28T00:16:02;99731.28;;;-1.02;100.00
43503;BME280;29098;48.184;16.298;2023-01-28T00:18:28;99741.03;;;-1.20;100.00
43503;BME280;29098;48.184;16.298;2023-01-28T00:20:55;99736.84;;;-1.08;100.00
43503;BME280;29098;48.184;16.298;2023-01-28T00:23:21;99730.03;;;-1.24;100.00
43503;BME280;29098;48.184;16.298;2023-01-28T00:25:46;99729.94;;;-1.22;100.00
43503;BME280;29098;48.184;16.298;2023-01-28T00:28:11;99733.25;;;-1.20;100.00
43503;BME280;29098;48.184;16.298;2023-01-28T00:30:37;99739.22;;;-1.05;100.00
43503;BME280;29098;48.184;16.298;2023-01-28T00:33:03;99729.16;;;-1.10;100.00
43503;BME280;29098;48.184;16.298;2023-01-28T00:35:28;99739.72;;;-1.13;100.00
43503;BME280;29098;48.184;16.298;2023-01-28T00:37:54;99729.31;;;-1.26;100.00
43503;BME280;29098;48.184;16.298;2023-01-28T00:40:19;99723.84;;;-1.21;100.00
43503;BME280;29098;48.184;16.298;2023-01-28T00:42:44;99725.22;;;-1.16;100.00
43503;BME280;29098;48.184;16.298;2023-01-28T00:45:10;99722.31;;;-1.11;100.00
43503;BME280;29098;48.184;16.298;2023-01-28T00:47:35;99727.44;;;-1.24;100.00
43503;BME280;29098;48.184;16.298;2023-01-28T00:50:01;99723.84;;;-1.21;100.00
43503;BME280;29098;48.184;16.298;2023-01-28T00:52:27;99722.28;;;-1.24;100.00
43503;BME280;29098;48.184;16.298;2023-01-28T00:54:52;99721.50;;;-1.12;100.00
43503;BME280;29098;48.184;16.298;2023-01-28T00:57:18;99721.34;;;-1.23;100.00
43503;BME280;29098;48.184;16.298;2023-01-28T00:59:43;99721.97;;;-1.19;100.00
43503;BME280;29098;48.184;16.298;2023-01-28T01:02:09;99710.06;;;-1.22;100.00
43503;BME280;29098;48.184;16.298;2023-01-28T01:04:38;99722.72;;;-1.17;100.00
43503;BME280;29098;48.184;16.298;2023-01-28T01:07:03;99728.72;;;-1.17;100.00
43503;BME280;29098;48.184;16.298;2023-01-28T01:09:28;99730.59;;;-1.19;100.00
43503;BME280;29098;48.184;16.298;2023-01-28T01:11:54;99731.78;;;-1.25;100.00
43503;BME280;29098;48.184;16.298;2023-01-28T01:14:19;99730.59;;;-1.19;100.00
43503;BME280;29098;48.184;16.298;2023-01-28T01:16:44;99729.94;;;-1.22;100.00
43503;BME280;29098;48.184;16.298;2023-01-28T01:19:10;99731.91;;;-1.26;100.00
43503;BME280;29098;48.184;16.298;2023-01-28T01:21:36;99726.75;;;-1.41;100.00
43503;BME280;29098;48.184;16.298;2023-01-28T01:24:01;99738.66;;;-1.38;100.00
43503;BME280;29098;48.184;16.298;2023-01-28T01:26:26;99737.88;;;-1.26;100.00
43503;BME280;29098;48.184;16.298;2023-01-28T01:28:52;99740.00;;;-1.18;100.00
43503;BME280;29098;48.184;16.298;2023-01-28T01:31:19;99734.91;;;-1.19;100.00
43503;BME280;29098;48.184;16.298;2023-01-28T01:33:45;99741.75;;;-1.18;100.00
43503;BME280;29098;48.184;16.298;2023-01-28T01:36:11;99740.72;;;-1.16;100.00
43503;BME280;29098;48.184;16.298;2023-01-28T01:38:37;99738.44;;;-1.20;100.00
43503;BME280;29098;48.184;16.298;2023-01-28T01:41:03;99739.50;;;-1.10;100.00
43503;BME280;29098;48.184;16.298;2023-01-28T01:43:45;99751.59;;;-0.96;100.00
43503;BME280;29098;48.184;16.298;2023-01-28T01:46:11;99746.59;;;-0.99;100.00
43503;BME280;29098;48.184;16.298;2023-01-28T01:48:37;99752.16;;;-1.05;100.00
43503;BME280;29098;48.184;16.298;2023-01-28T01:51:09;99749.28;;;-1.01;100.00
43503;BME280;29098;48.184;16.298;2023-01-28T01:53:38;99745.91;;;-0.88;100.00
43503;BME280;29098;48.184;16.298;2023-01-28T01:56:05;99745.63;;;-0.84;100.00
43503;BME280;29098;48.184;16.298;2023-01-28T01:58:34;99750.47;;;-0.92;100.00
43503;BME280;29098;48.184;16.298;2023-01-28T02:01:01;99751.97;;;-1.02;100.00
43503;BME280;29098;48.184;16.298;2023-01-28T02:03:27;99763.78;;;-0.98;100.00
43503;BME280;29098;48.184;16.298;2023-01-28T02:05:55;99746.13;;;-0.91;100.00
43503;BME280;29098;48.184;16.298;2023-01-28T02:08:21;99752.91;;;-1.03;100.00
43503;BME280;29098;48.184;16.298;2023-01-28T02:10:47;99739.34;;;-1.07;100.00
43503;BME280;29098;48.184;16.298;2023-01-28T02:13:13;99745.53;;;-1.09;100.00
43503;BME280;29098;48.184;16.298;2023-01-28T02:15:40;99739.63;;;-1.12;100.00
43503;BME280;29098;48.184;16.298;2023-01-28T02:18:06;99744.72;;;-0.97;100.00
43503;BME280;29098;48.184;16.298;2023-01-28T02:35:53;99747.19;;;-1.08;100.00
43503;BME280;29098;48.184;16.298;2023-01-28T02:38:25;99746.13;;;-1.19;100.00
43503;BME280;29098;48.184;16.298;2023-01-28T02:40:54;99748.53;;;-1.30;100.00
43503;BME280;29098;48.184;16.298;2023-01-28T02:43:29;99739.88;;;-1.16;100.00
43503;BME280;29098;48.184;16.298;2023-01-28T02:45:54;99746.03;;;-1.04;100.00
43503;BME280;29098;48.184;16.298;2023-01-28T02:48:38;99740.78;;;-1.03;100.00
43503;BME280;29098;48.184;16.298;2023-01-28T02:51:09;99731.28;;;-1.02;100.00
43503;BME280;29098;48.184;16.298;2023-01-28T02:53:39;99743.06;;;-0.98;100.00
43503;BME280;29098;48.184;16.298;2023-01-28T03:01:23;99746.59;;;-0.99;100.00
43503;BME280;29098;48.184;16.298;2023-01-28T03:06:19;99745.28;;;-0.92;100.00
43503;BME280;29098;48.184;16.298;2023-01-28T03:08:49;99741.81;;;-1.05;100.00
43503;BME280;29098;48.184;16.298;2023-01-28T03:11:35;99747.53;;;-1.00;100.00
43503;BME280;29098;48.184;16.298;2023-01-28T03:14:20;99751.69;;;-0.98;100.00
43503;BME280;29098;48.184;16.298;2023-01-28T03:17:04;99740.78;;;-1.03;100.00
43503;BME280;29098;48.184;16.298;2023-01-28T03:19:51;99745.25;;;-1.19;100.00
43503;BME280;29098;48.184;16.298;2023-01-28T03:22:36;99745.81;;;-1.14;100.00
43503;BME280;29098;48.184;16.298;2023-01-28T03:25:20;99759.19;;;-1.07;100.00
43503;BME280;29098;48.184;16.298;2023-01-28T03:28:06;99755.66;;;-1.06;100.00
43503;BME280;29098;48.184;16.298;2023-01-28T03:31:02;99750.31;;;-1.03;100.00
43503;BME280;29098;48.184;16.298;2023-01-28T03:33:47;99748.25;;;-0.98;100.00
43503;BME280;29098;48.184;16.298;2023-01-28T03:36:32;99757.16;;;-1.02;100.00
43503;BME280;29098;48.184;16.298;2023-01-28T03:39:16;99760.59;;;-1.16;100.00
43503;BME280;29098;48.184;16.298;2023-01-28T03:41:41;99758.94;;;-1.32;100.00
43503;BME280;29098;48.184;16.298;2023-01-28T03:44:07;99761.00;;;-1.22;100.00
43503;BME280;29098;48.184;16.298;2023-01-28T03:46:51;99756.34;;;-1.17;100.00
43503;BME280;29098;48.184;16.298;2023-01-28T03:49:16;99758.84;;;-1.16;100.00
43503;BME280;29098;48.184;16.298;2023-01-28T03:51:42;99759.03;;;-1.19;100.00
43503;BME280;29098;48.184;16.298;2023-01-28T03:54:08;99767.78;;;-1.07;100.00
43503;BME280;29098;48.184;16.298;2023-01-28T03:56:33;99765.31;;;-1.23;100.00
43503;BME280;29098;48.184;16.298;2023-01-28T03:59:04;99763.84;;;-1.27;100.00
43503;BME280;29098;48.184;16.298;2023-01-28T04:01:29;99765.69;;;-1.29;100.00
43503;BME280;29098;48.184;16.298;2023-01-28T04:03:54;99757.34;;;-1.20;100.00
43503;BME280;29098;48.184;16.298;2023-01-28T04:06:20;99764.63;;;-1.40;100.00
43503;BME280;29098;48.184;16.298;2023-01-28T04:08:45;99763.59;;;-1.37;100.00
43503;BME280;29098;48.184;16.298;2023-01-28T04:11:16;99760.16;;;-1.38;100.00
43503;BME280;29098;48.184;16.298;2023-01-28T04:13:44;99769.22;;;-1.30;100.00
43503;BME280;29098;48.184;16.298;2023-01-28T04:16:10;99762.09;;;-1.41;100.00
43503;BME280;29098;48.184;16.298;2023-01-28T04:18:35;99761.44;;;-1.30;100.00
43503;BME280;29098;48.184;16.298;2023-01-28T04:21:01;99770.34;;;-1.34;100.00
43503;BME280;29098;48.184;16.298;2023-01-28T04:23:26;99758.50;;;-1.24;100.00
43503;BME280;29098;48.184;16.298;2023-01-28T04:25:53;99764.97;;;-1.31;100.00
43503;BME280;29098;48.184;16.298;2023-01-28T04:28:19;99766.81;;;-1.19;100.00
43503;BME280;29098;48.184;16.298;2023-01-28T04:30:44;99769.28;;;-1.32;100.00
43503;BME280;29098;48.184;16.298;2023-01-28T04:33:09;99764.25;;;-1.33;100.00
43503;BME280;29098;48.184;16.298;2023-01-28T04:35:35;99768.78;;;-1.37;100.00
43503;BME280;29098;48.184;16.298;2023-01-28T04:38:00;99771.00;;;-1.45;100.00
43503;BME280;29098;48.184;16.298;2023-01-28T04:40:25;99760.81;;;-1.48;100.00
43503;BME280;29098;48.184;16.298;2023-01-28T04:42:54;99772.00;;;-1.33;100.00
43503;BME280;29098;48.184;16.298;2023-01-28T04:45:20;99773.47;;;-1.44;100.00
43503;BME280;29098;48.184;16.298;2023-01-28T04:47:45;99777.81;;;-1.44;100.00
43503;BME280;29098;48.184;16.298;2023-01-28T04:50:10;99773.94;;;-1.37;100.00
43503;BME280;29098;48.184;16.298;2023-01-28T04:52:35;99767.47;;;-1.44;100.00
43503;BME280;29098;48.184;16.298;2023-01-28T04:55:01;99774.88;;;-1.53;100.00
43503;BME280;29098;48.184;16.298;2023-01-28T04:57:27;99778.47;;;-1.41;100.00
43503;BME280;29098;48.184;16.298;2023-01-28T04:59:52;99780.31;;;-1.43;100.00
43503;BME280;29098;48.184;16.298;2023-01-28T05:02:18;99780.50;;;-1.46;100.00
43503;BME280;29098;48.184;16.298;2023-01-28T05:04:43;99789.53;;;-1.39;100.00
43503;BME280;29098;48.184;16.298;2023-01-28T05:07:08;99781.59;;;-1.35;100.00
43503;BME280;29098;48.184;16.298;2023-01-28T05:09:34;99790.09;;;-1.33;100.00
43503;BME280;29098;48.184;16.298;2023-01-28T05:11:59;99785.88;;;-1.49;100.00
43503;BME280;29098;48.184;16.298;2023-01-28T05:14:24;99788.53;;;-1.36;100.00
43503;BME280;29098;48.184;16.298;2023-01-28T05:16:49;99788.44;;;-1.34;100.00
43503;BME280;29098;48.184;16.298;2023-01-28T05:19:15;99792.88;;;-1.36;100.00
43503;BME280;29098;48.184;16.298;2023-01-28T05:21:40;99789.34;;;-1.35;100.00
43503;BME280;29098;48.184;16.298;2023-01-28T05:24:05;99793.06;;;-1.54;100.00
43503;BME280;29098;48.184;16.298;2023-01-28T05:26:31;99786.41;;;-1.44;100.00
43503;BME280;29098;48.184;16.298;2023-01-28T05:28:56;99794.72;;;-1.39;100.00
43503;BME280;29098;48.184;16.298;2023-01-28T05:31:22;99788.25;;;-1.60;100.00
43503;BME280;29098;48.184;16.298;2023-01-28T05:33:47;99790.38;;;-1.67;100.00
43503;BME280;29098;48.184;16.298;2023-01-28T05:36:12;99798.88;;;-1.50;100.00
43503;BME280;29098;48.184;16.298;2023-01-28T05:38:38;99794.44;;;-1.63;100.00
43503;BME280;29098;48.184;16.298;2023-01-28T05:41:03;99793.72;;;-1.50;100.00
43503;BME280;29098;48.184;16.298;2023-01-28T05:43:28;99800.47;;;-1.48;100.00
43503;BME280;29098;48.184;16.298;2023-01-28T05:45:54;99797.66;;;-1.45;100.00
43503;BME280;29098;48.184;16.298;2023-01-28T05:48:19;99799.72;;;-1.50;100.00
43503;BME280;29098;48.184;16.298;2023-01-28T05:50:47;99799.72;;;-1.64;100.00
43503;BME280;29098;48.184;16.298;2023-01-28T05:53:13;99800.81;;;-1.54;100.00
43503;BME280;29098;48.184;16.298;2023-01-28T05:55:38;99794.72;;;-1.53;100.00
43503;BME280;29098;48.184;16.298;2023-01-28T05:58:03;99798.22;;;-1.69;100.00
43503;BME280;29098;48.184;16.298;2023-01-28T06:00:29;99807.56;;;-1.52;100.00
43503;BME280;29098;48.184;16.298;2023-01-28T06:02:54;99803.69;;;-1.44;100.00
43503;BME280;29098;48.184;16.298;2023-01-28T06:05:19;99809.31;;;-1.38;100.00
43503;BME280;29098;48.184;16.298;2023-01-28T06:07:45;99796.28;;;-1.36;100.00
43503;BME280;29098;48.184;16.298;2023-01-28T06:10:10;99800.63;;;-1.36;100.00
43503;BME280;29098;48.184;16.298;2023-01-28T06:12:36;99770.16;;;-1.60;100.00
43503;BME280;29098;48.184;16.298;2023-01-28T06:15:01;99804.69;;;-1.47;100.00
43503;BME280;29098;48.184;16.298;2023-01-28T06:17:26;99818.06;;;-1.26;100.00
43503;BME280;29098;48.184;16.298;2023-01-28T06:19:52;99816.13;;;-1.36;100.00
43503;BME280;29098;48.184;16.298;2023-01-28T06:22:17;99820.59;;;-1.39;100.00
43503;BME280;29098;48.184;16.298;2023-01-28T06:24:42;99821.97;;;-1.33;100.00
43503;BME280;29098;48.184;16.298;2023-01-28T06:27:08;99821.78;;;-1.30;100.00
43503;BME280;29098;48.184;16.298;2023-01-28T06:29:33;99823.91;;;-1.36;100.00
43503;BME280;29098;48.184;16.298;2023-01-28T06:31:59;99825.75;;;-1.24;100.00
43503;BME280;29098;48.184;16.298;2023-01-28T06:34:24;99826.84;;;-1.28;100.00
43503;BME280;29098;48.184;16.298;2023-01-28T06:36:50;99831.09;;;-1.27;100.00
43503;BME280;29098;48.184;16.298;2023-01-28T06:39:17;99835.16;;;-1.23;100.00
43503;BME280;29098;48.184;16.298;2023-01-28T06:41:42;99831.94;;;-1.27;100.00
43503;BME280;29098;48.184;16.298;2023-01-28T06:44:07;99840.63;;;-1.28;100.00
43503;BME280;29098;48.184;16.298;2023-01-28T06:46:33;99845.16;;;-1.46;100.00
43503;BME280;29098;48.184;16.298;2023-01-28T06:48:58;99851.25;;;-1.32;100.00
43503;BME280;29098;48.184;16.298;2023-01-28T06:51:24;99852.06;;;-1.17;100.00
43503;BME280;29098;48.184;16.298;2023-01-28T06:53:49;99861.25;;;-1.12;100.00
43503;BME280;29098;48.184;16.298;2023-01-28T06:56:14;99859.38;;;-1.09;100.00
43503;BME280;29098;48.184;16.298;2023-01-28T06:58:40;99866.22;;;-1.08;100.00
43503;BME280;29098;48.184;16.298;2023-01-28T07:01:05;99861.50;;;-1.16;100.00
43503;BME280;29098;48.184;16.298;2023-01-28T07:03:31;99864.84;;;-1.29;100.00
43503;BME280;29098;48.184;16.298;2023-01-28T07:05:56;99864.47;;;-1.22;100.00
43503;BME280;29098;48.184;16.298;2023-01-28T07:08:21;99868.22;;;-1.28;100.00
43503;BME280;29098;48.184;16.298;2023-01-28T07:10:46;99867.88;;;-1.22;100.00
43503;BME280;29098;48.184;16.298;2023-01-28T07:13:13;99871.09;;;-1.18;100.00
43503;BME280;29098;48.184;16.298;2023-01-28T07:15:38;99858.25;;;-1.20;100.00
43503;BME280;29098;48.184;16.298;2023-01-28T07:18:03;99867.31;;;-1.27;100.00
43503;BME280;29098;48.184;16.298;2023-01-28T07:20:29;99866.94;;;-1.21;100.00
43503;BME280;29098;48.184;16.298;2023-01-28T07:22:55;99862.25;;;-1.14;100.00
43503;BME280;29098;48.184;16.298;2023-01-28T07:25:20;99861.13;;;-1.10;100.00
43503;BME280;29098;48.184;16.298;2023-01-28T07:27:49;99861.41;;;-1.00;100.00
43503;BME280;29098;48.184;16.298;2023-01-28T07:30:16;99850.25;;;-1.30;100.00
43503;BME280;29098;48.184;16.298;2023-01-28T07:32:42;99853.72;;;-1.16;100.00
43503;BME280;29098;48.184;16.298;2023-01-28T07:35:07;99855.50;;;-1.17;100.00
43503;BME280;29098;48.184;16.298;2023-01-28T07:37:32;99855.94;;;-1.10;100.00
43503;BME280;29098;48.184;16.298;2023-01-28T07:39:58;99857.72;;;-1.11;100.00
43503;BME280;29098;48.184;16.298;2023-01-28T07:42:23;99852.91;;;-1.17;100.00
43503;BME280;29098;48.184;16.298;2023-01-28T07:44:48;99861.47;;;-1.02;100.00
43503;BME280;29098;48.184;16.298;2023-01-28T07:47:14;99865.09;;;-1.04;100.00
43503;BME280;29098;48.184;16.298;2023-01-28T07:49:39;99859.81;;;-1.03;100.00
43503;BME280;29098;48.184;16.298;2023-01-28T07:52:05;99869.44;;;-0.90;100.00
43503;BME280;29098;48.184;16.298;2023-01-28T07:54:30;99871.91;;;-0.89;100.00
43503;BME280;29098;48.184;16.298;2023-01-28T07:56:56;99873.13;;;-0.94;100.00
43503;BME280;29098;48.184;16.298;2023-01-28T07:59:21;99879.44;;;-0.99;100.00
43503;BME280;29098;48.184;16.298;2023-01-28T08:01:46;99880.59;;;-0.90;100.00
43503;BME280;29098;48.184;16.298;2023-01-28T08:04:12;99876.34;;;-0.91;100.00
43503;BME280;29098;48.184;16.298;2023-01-28T08:06:37;99874.13;;;-0.97;100.00
43503;BME280;29098;48.184;16.298;2023-01-28T08:09:03;99886.13;;;-0.81;100.00
43503;BME280;29098;48.184;16.298;2023-01-28T08:11:30;99885.50;;;-0.85;100.00
43503;BME280;29098;48.184;16.298;2023-01-28T08:13:55;99889.13;;;-0.88;100.00
43503;BME280;29098;48.184;16.298;2023-01-28T08:16:21;99889.84;;;-0.86;100.00
43503;BME280;29098;48.184;16.298;2023-01-28T08:18:46;99893.81;;;-0.80;100.00
43503;BME280;29098;48.184;16.298;2023-01-28T08:21:11;99897.34;;;-0.81;100.00
43503;BME280;29098;48.184;16.298;2023-01-28T08:23:36;99902.31;;;-0.78;100.00
43503;BME280;29098;48.184;16.298;2023-01-28T08:26:02;99902.03;;;-0.73;100.00
43503;BME280;29098;48.184;16.298;2023-01-28T08:28:27;99904.38;;;-0.98;100.00
43503;BME280;29098;48.184;16.298;2023-01-28T08:30:52;99908.34;;;-0.92;100.00
43503;BME280;29098;48.184;16.298;2023-01-28T08:33:18;99905.19;;;-0.83;100.00
43503;BME280;29098;48.184;16.298;2023-01-28T08:35:44;99907.41;;;-0.76;100.00
43503;BME280;29098;48.184;16.298;2023-01-28T08:38:10;99916.09;;;-0.77;100.00
43503;BME280;29098;48.184;16.298;2023-01-28T08:40:37;99918.69;;;-0.77;100.00
43503;BME280;29098;48.184;16.298;2023-01-28T08:43:02;99919.78;;;-0.81;100.00
43503;BME280;29098;48.184;16.298;2023-01-28T08:45:27;99915.72;;;-0.71;100.00
43503;BME280;29098;48.184;16.298;2023-01-28T08:47:54;99930.53;;;-0.88;100.00
43503;BME280;29098;48.184;16.298;2023-01-28T08:50:21;99926.47;;;-0.77;100.00
43503;BME280;29098;48.184;16.298;2023-01-28T08:52:47;99929.59;;;-0.72;100.00
43503;BME280;29098;48.184;16.298;2023-01-28T08:55:14;99926.47;;;-0.77;100.00
43503;BME280;29098;48.184;16.298;2023-01-28T08:57:39;99926.66;;;-0.80;100.00
43503;BME280;29098;48.184;16.298;2023-01-28T09:00:05;99927.31;;;-0.77;100.00
43503;BME280;29098;48.184;16.298;2023-01-28T09:02:30;99931.84;;;-0.80;100.00
43503;BME280;29098;48.184;16.298;2023-01-28T09:04:56;99931.78;;;-0.66;100.00
43503;BME280;29098;48.184;16.298;2023-01-28T09:07:21;99933.00;;;-0.57;100.00
43503;BME280;29098;48.184;16.298;2023-01-28T09:09:46;99932.34;;;-0.61;100.00
43503;BME280;29098;48.184;16.298;2023-01-28T09:12:12;99927.72;;;-0.56;100.00
43503;BME280;29098;48.184;16.298;2023-01-28T09:14:37;99938.09;;;-0.56;100.00
43503;BME280;29098;48.184;16.298;2023-01-28T09:17:05;99935.88;;;-0.62;100.00
43503;BME280;29098;48.184;16.298;2023-01-28T09:19:31;99936.31;;;-0.55;100.00
43503;BME280;29098;48.184;16.298;2023-01-28T09:21:56;99938.81;;;-0.53;100.00
43503;BME280;29098;48.184;16.298;2023-01-28T09:24:21;99945.66;;;-0.52;100.00
43503;BME280;29098;48.184;16.298;2023-01-28T09:26:47;99940.69;;;-0.56;100.00
43503;BME280;29098;48.184;16.298;2023-01-28T09:29:13;99948.72;;;-0.46;100.00
43503;BME280;29098;48.184;16.298;2023-01-28T09:31:38;99940.00;;;-0.45;100.00
43503;BME280;29098;48.184;16.298;2023-01-28T09:34:04;99948.41;;;-0.41;100.00
43503;BME280;29098;48.184;16.298;2023-01-28T09:36:29;99952.84;;;-0.43;100.00
43503;BME280;29098;48.184;16.298;2023-01-28T09:38:54;99946.75;;;-0.42;100.00
43503;BME280;29098;48.184;16.298;2023-01-28T09:41:24;99960.34;;;-0.38;100.00
43503;BME280;29098;48.184;16.298;2023-01-28T09:46:23;99956.53;;;-0.33;100.00
43503;BME280;29098;48.184;16.298;2023-01-28T09:48:53;99955.63;;;-0.46;100.00
43503;BME280;29098;48.184;16.298;2023-01-28T09:53:54;99956.19;;;-0.41;100.00
43503;BME280;29098;48.184;16.298;2023-01-28T09:56:27;99964.03;;;-0.28;100.00
43503;BME280;29098;48.184;16.298;2023-01-28T09:58:55;99960.50;;;-0.27;100.00
43503;BME280;29098;48.184;16.298;2023-01-28T10:01:34;99954.28;;;-0.24;100.00
43503;BME280;29098;48.184;16.298;2023-01-28T10:17:42;99948.81;;;-0.20;100.00
43503;BME280;29098;48.184;16.298;2023-01-28T10:22:57;99946.66;;;-0.13;100.00
43503;BME280;29098;48.184;16.298;2023-01-28T10:25:26;99939.66;;;-0.11;100.00
43503;BME280;29098;48.184;16.298;2023-01-28T10:27:53;99937.78;;;-0.09;100.00
43503;BME280;29098;48.184;16.298;2023-01-28T10:30:22;99936.38;;;0.00;100.00
43503;BME280;29098;48.184;16.298;2023-01-28T10:32:54;99939.03;;;-0.02;100.00
43503;BME280;29098;48.184;16.298;2023-01-28T10:35:20;99942.56;;;-0.03;100.00
43503;BME280;29098;48.184;16.298;2023-01-28T10:37:46;99940.94;;;0.09;100.00
43503;BME280;29098;48.184;16.298;2023-01-28T10:40:15;99941.03;;;0.08;100.00
43503;BME280;29098;48.184;16.298;2023-01-28T10:42:41;99947.88;;;0.09;100.00
43503;BME280;29098;48.184;16.298;2023-01-28T10:45:15;99943.72;;;0.06;100.00
43503;BME280;29098;48.184;16.298;2023-01-28T10:47:43;99944.66;;;0.05;100.00
43503;BME280;29098;48.184;16.298;2023-01-28T10:50:16;99943.41;;;0.11;100.00
43503;BME280;29098;48.184;16.298;2023-01-28T10:52:55;99942.41;;;0.13;100.00
43503;BME280;29098;48.184;16.298;2023-01-28T10:55:21;99944.19;;;0.13;100.00
43503;BME280;29098;48.184;16.298;2023-01-28T10:57:46;99944.91;;;0.15;100.00
43503;BME280;29098;48.184;16.298;2023-01-28T11:00:21;99940.34;;;0.19;100.00
43503;BME280;29098;48.184;16.298;2023-01-28T11:02:47;99945.63;;;0.17;100.00
43503;BME280;29098;48.184;16.298;2023-01-28T11:05:18;99946.34;;;0.19;100.00
43503;BME280;29098;48.184;16.298;2023-01-28T11:07:45;99946.16;;;0.22;100.00
43503;BME280;29098;48.184;16.298;2023-01-28T11:10:28;99941.38;;;0.16;100.00
43503;BME280;29098;48.184;16.298;2023-01-28T11:12:56;99932.66;;;0.17;100.00
43503;BME280;29098;48.184;16.298;2023-01-28T11:15:22;99940.25;;;0.20;100.00
43503;BME280;29098;48.184;16.298;2023-01-28T11:17:49;99949.56;;;0.23;100.00
43503;BME280;29098;48.184;16.298;2023-01-28T11:20:21;99951.97;;;0.26;100.00
43503;BME280;29098;48.184;16.298;2023-01-28T11:22:47;99945.94;;;0.25;100.00
43503;BME280;29098;48.184;16.298;2023-01-28T11:27:58;99939.31;;;0.21;100.00
43503;BME280;29098;48.184;16.298;2023-01-28T11:33:11;99942.53;;;0.12;100.00
43503;BME280;29098;48.184;16.298;2023-01-28T11:35:38;99945.75;;;0.16;100.00
43503;BME280;29098;48.184;16.298;2023-01-28T11:38:10;99948.03;;;0.20;100.00
43503;BME280;29098;48.184;16.298;2023-01-28T11:40:48;99939.50;;;0.18;100.00
43503;BME280;29098;48.184;16.298;2023-01-28T11:43:13;99942.41;;;0.13;100.00
43503;BME280;29098;48.184;16.298;2023-01-28T11:45:41;99946.06;;;0.24;100.00
43503;BME280;29098;48.184;16.298;2023-01-28T11:48:17;99945.56;;;0.32;100.00
43503;BME280;29098;48.184;16.298;2023-01-28T11:50:46;99947.63;;;0.26;100.00
43503;BME280;29098;48.184;16.298;2023-01-28T11:53:16;99941.41;;;0.29;100.00
43503;BME280;29098;48.184;16.298;2023-01-28T11:58:42;99943.28;;;0.27;100.00
43503;BME280;29098;48.184;16.298;2023-01-28T12:01:19;99940.25;;;0.20;100.00
43503;BME280;29098;48.184;16.298;2023-01-28T12:12:37;99946.28;;;0.34;100.00
43503;BME280;29098;48.184;16.298;2023-01-28T12:17:31;99943.50;;;0.37;100.00
43503;BME280;29098;48.184;16.298;2023-01-28T12:22:37;99940.59;;;0.42;100.00
43503;BME280;29098;48.184;16.298;2023-01-28T12:25:15;99942.34;;;0.41;100.00
43503;BME280;29098;48.184;16.298;2023-01-28T12:27:49;99947.97;;;0.35;100.00
43503;BME280;29098;48.184;16.298;2023-01-28T12:30:19;99940.78;;;0.38;100.00
43503;BME280;29098;48.184;16.298;2023-01-28T12:35:31;99944.94;;;0.41;100.00
43503;BME280;29098;48.184;16.298;2023-01-28T12:38:17;99955.63;;;0.36;100.00
43503;BME280;29098;48.184;16.298;2023-01-28T12:43:40;99959.88;;;0.37;100.00
43503;BME280;29098;48.184;16.298;2023-01-28T12:47:08;99953.81;;;0.51;100.00
43503;BME280;29098;48.184;16.298;2023-01-28T12:49:03;99954.94;;;0.47;100.00
43503;BME280;29098;48.184;16.298;2023-01-28T12:51:33;99959.16;;;0.35;100.00
43503;BME280;29098;48.184;16.298;2023-01-28T12:56:49;99959.78;;;0.39;100.00
43503;BME280;29098;48.184;16.298;2023-01-28T12:59:24;99961.66;;;0.37;100.00
43503;BME280;29098;48.184;16.298;2023-01-28T13:02:02;99958.03;;;0.39;100.00
43503;BME280;29098;48.184;16.298;2023-01-28T13:06:54;99949.34;;;0.53;100.00
43503;BME280;29098;48.184;16.298;2023-01-28T13:09:23;99957.22;;;0.52;100.00
43503;BME280;29098;48.184;16.298;2023-01-28T13:11:50;99955.78;;;0.48;100.00
43503;BME280;29098;48.184;16.298;2023-01-28T13:14:17;99966.44;;;0.43;100.00
43503;BME280;29098;48.184;16.298;2023-01-28T13:16:43;99954.50;;;0.40;100.00
43503;BME280;29098;48.184;16.298;2023-01-28T13:21:43;99962.06;;;0.44;100.00
43503;BME280;29098;48.184;16.298;2023-01-28T13:29:16;99977.72;;;0.42;100.00
43503;BME280;29098;48.184;16.298;2023-01-28T13:31:48;99976.50;;;0.35;100.00
43503;BME280;29098;48.184;16.298;2023-01-28T13:35:00;99978.72;;;0.26;100.00
43503;BME280;29098;48.184;16.298;2023-01-28T13:39:37;99981.56;;;0.36;100.00
43503;BME280;29098;48.184;16.298;2023-01-28T13:42:18;99984.28;;;0.35;100.00
43503;BME280;29098;48.184;16.298;2023-01-28T13:44:45;99985.41;;;0.31;100.00
43503;BME280;29098;48.184;16.298;2023-01-28T13:47:17;99987.16;;;0.30;100.00
43503;BME280;29098;48.184;16.298;2023-01-28T13:49:45;99986.94;;;0.20;100.00
43503;BME280;29098;48.184;16.298;2023-01-28T13:55:14;99993.09;;;0.32;100.00
43503;BME280;29098;48.184;16.298;2023-01-28T14:02:52;99993.47;;;0.26;100.00
43503;BME280;29098;48.184;16.298;2023-01-28T14:05:36;99996.50;;;0.33;100.00
43503;BME280;29098;48.184;16.298;2023-01-28T14:13:24;99991.59;;;0.28;100.00
43503;BME280;29098;48.184;16.298;2023-01-28T14:18:42;100000.56;;;0.37;100.00
43503;BME280;29098;48.184;16.298;2023-01-28T14:21:10;99998.66;;;0.26;100.00
43503;BME280;29098;48.184;16.298;2023-01-28T14:23:35;100012.56;;;0.25;100.00
43503;BME280;29098;48.184;16.298;2023-01-28T14:26:09;100011.47;;;0.15;100.00
43503;BME280;29098;48.184;16.298;2023-01-28T14:31:27;100012.50;;;0.39;100.00
43503;BME280;29098;48.184;16.298;2023-01-28T14:33:55;100005.94;;;0.34;100.00